Los Ranchos del Rio, New Mexico
Current Conditions -  °F | °C
As of 4:51 PM on Wednesday 28 Jan 2015 (Local Time) from KELP Reporting Station
Broken Clouds Broken Clouds  
Wind Chill: 70°   Ceiling: 25000
Heat Index: 70°   Visibility: 10mi
Dew Point: 38°   Wind: 6mph
Humidity: 31%   Direction: 260°W
Pressure: 30.11"   Gusts: NA
Location:  31.8707°N, 106.67°W
Report Text: KELP 282351Z 26005KT 10SM BKN250 21/03 A3011 RMK AO2 SLP158 T02110033 10228 20156 55004
Loading
Personal Weather Stations






























Interactive Weather Map New forecast layout! Learn more

10-Day Weather Forecast

Advertisements
Track Severe Weather on mobile